Time;durP1;ratioP1;P1;durP2;ratioP2;P2;SDS_P1;SDS_P2;PMS_P1;PMS_P2;Temp;Humidity;BMP_temperature;BMP_pressure;BME280_temperature;BME280_humidity;BME280_pressure;Samples;Min_cycle;Max_cycle;Signal;HPM_P1;HPM_P2
2022/04/06 00:01:45;;;;;;;17.13;5.03;;;8.60;99.90;;;;;;4996077;28;20113;-85
2022/04/06 00:04:11;;;;;;;13.20;5.18;;;8.60;99.90;;;;;;4997139;28;20117;-85
2022/04/06 00:06:37;;;;;;;16.58;5.63;;;8.60;99.90;;;;;;4996914;28;20413;-85
2022/04/06 00:09:04;;;;;;;17.42;5.45;;;8.60;99.90;;;;;;4995535;28;20034;-85
2022/04/06 00:11:30;;;;;;;13.82;5.18;;;8.60;99.90;;;;;;4994904;28;20026;-85
2022/04/06 00:13:56;;;;;;;13.95;4.97;;;8.60;99.90;;;;;;4996146;28;20117;-85
2022/04/06 00:16:22;;;;;;;10.35;4.60;;;8.60;99.90;;;;;;5000182;28;20050;-85
2022/04/06 00:18:48;;;;;;;16.13;4.55;;;8.60;99.90;;;;;;5000044;28;20116;-85
2022/04/06 00:21:13;;;;;;;19.77;4.57;;;8.60;99.90;;;;;;4996294;28;20390;-85
2022/04/06 00:23:39;;;;;;;13.85;4.88;;;8.60;99.90;;;;;;4994696;28;20390;-85
2022/04/06 00:26:04;;;;;;;14.10;4.95;;;8.60;99.90;;;;;;4993994;28;20022;-85
2022/04/06 00:28:30;;;;;;;15.50;5.93;;;8.60;99.90;;;;;;4995538;28;20073;-85
2022/04/06 00:30:56;;;;;;;18.25;4.97;;;8.60;99.90;;;;;;4997518;28;20082;-85
2022/04/06 00:33:22;;;;;;;17.25;4.25;;;8.50;99.90;;;;;;5001852;28;20022;-85
2022/04/06 00:35:48;;;;;;;12.45;3.65;;;8.60;99.90;;;;;;5016987;28;20540;-85
2022/04/06 00:38:14;;;;;;;14.68;4.28;;;8.50;99.90;;;;;;5015282;28;20033;-85
2022/04/06 00:40:40;;;;;;;12.13;3.40;;;8.60;99.90;;;;;;5015725;28;20026;-85
2022/04/06 00:43:10;;;;;;;10.98;3.50;;;8.60;99.90;;;;;;5015945;28;20474;-85
2022/04/06 00:45:38;;;;;;;11.50;3.38;;;8.70;99.90;;;;;;5011705;28;20034;-85
2022/04/06 00:48:04;;;;;;;9.82;2.72;;;8.80;84.90;;;;;;4996721;28;20023;-85
2022/04/06 00:50:30;;;;;;;9.65;2.80;;;8.80;89.20;;;;;;4999403;28;20026;-85
2022/04/06 00:52:57;;;;;;;8.18;3.42;;;8.80;65.50;;;;;;4996832;28;20026;-85
2022/04/06 00:55:31;;;;;;;9.27;2.80;;;8.80;62.10;;;;;;4998408;28;20497;-85
2022/04/06 00:57:58;;;;;;;6.82;2.72;;;8.90;29.20;;;;;;4997736;28;20494;-85
2022/04/06 01:00:24;;;;;;;9.75;2.60;;;8.90;24.70;;;;;;5005802;28;20114;-85
2022/04/06 01:02:51;;;;;;;9.60;2.42;;;8.90;33.20;;;;;;4999150;28;20030;-85
2022/04/06 01:05:16;;;;;;;8.90;2.25;;;8.90;27.70;;;;;;5003091;28;20122;-85
2022/04/06 01:07:49;;;;;;;7.18;2.22;;;8.90;22.20;;;;;;4996192;28;20089;-85
2022/04/06 01:10:15;;;;;;;7.43;2.17;;;8.90;16.00;;;;;;4996937;28;20036;-85
2022/04/06 01:12:44;;;;;;;7.20;1.92;;;8.90;9.90;;;;;;4997017;28;20038;-85
2022/04/06 01:15:10;;;;;;;9.55;2.20;;;8.90;1.00;;;;;;5031327;23;20082;-80
2022/04/06 01:17:35;;;;;;;9.35;2.03;;;8.90;1.00;;;;;;5023225;28;20495;-81
2022/04/06 01:20:05;;;;;;;12.15;2.20;;;8.90;1.00;;;;;;5023713;28;20089;-81
2022/04/06 01:22:31;;;;;;;7.20;2.35;;;8.90;1.00;;;;;;5021101;28;20450;-81
2022/04/06 01:24:58;;;;;;;11.85;1.90;;;8.90;1.00;;;;;;5016118;28;20033;-81
2022/04/06 01:27:23;;;;;;;5.18;2.08;;;8.90;1.00;;;;;;5019550;28;20049;-80
2022/04/06 01:29:52;;;;;;;5.53;1.60;;;8.90;1.00;;;;;;5019829;28;20589;-80
2022/04/06 01:32:20;;;;;;;6.63;1.73;;;8.90;1.00;;;;;;5035221;28;20093;-81
2022/04/06 01:34:47;;;;;;;13.63;1.90;;;8.90;1.00;;;;;;5030599;28;20029;-81
2022/04/06 01:37:14;;;;;;;6.60;1.85;;;8.90;1.00;;;;;;5030174;28;20481;-80
2022/04/06 01:39:42;;;;;;;9.02;1.95;;;8.90;1.00;;;;;;5037750;28;20157;-81
2022/04/06 01:42:09;;;;;;;7.57;2.00;;;8.90;1.00;;;;;;5019925;28;20030;-80
2022/04/06 01:44:35;;;;;;;6.05;2.03;;;8.90;1.00;;;;;;5027261;28;20393;-81
2022/04/06 01:47:03;;;;;;;6.15;1.92;;;8.90;1.00;;;;;;5019102;28;20034;-80
2022/04/06 01:52:13;;;;;;;10.55;1.67;;;8.90;1.00;;;;;;5025298;28;20127;-80
2022/04/06 01:54:56;;;;;;;11.75;2.08;;;8.80;1.00;;;;;;5020522;28;20397;-80
2022/04/06 01:57:23;;;;;;;6.18;1.70;;;8.90;1.00;;;;;;5023733;28;20025;-81
2022/04/06 01:59:49;;;;;;;7.65;1.85;;;8.80;1.00;;;;;;5019007;28;20026;-80
2022/04/06 02:02:18;;;;;;;10.07;1.80;;;8.80;1.00;;;;;;5018559;28;20105;-80
2022/04/06 02:04:44;;;;;;;11.10;2.00;;;8.90;1.00;;;;;;5025977;28;20026;-80
2022/04/06 02:07:11;;;;;;;8.45;1.77;;;8.90;1.00;;;;;;5018069;28;20109;-81
2022/04/06 02:09:39;;;;;;;8.82;1.92;;;8.80;1.00;;;;;;5018530;28;20026;-80
2022/04/06 02:12:11;;;;;;;4.60;1.50;;;8.80;1.00;;;;;;5021514;28;20021;-80
2022/04/06 02:14:39;;;;;;;6.75;1.80;;;8.80;1.00;;;;;;5007035;28;20050;-80
2022/04/06 02:17:07;;;;;;;7.95;2.35;;;8.80;1.00;;;;;;5018599;28;20064;-80
2022/04/06 02:19:34;;;;;;;5.90;1.55;;;8.70;1.00;;;;;;5018593;28;20109;-80
2022/04/06 02:21:59;;;;;;;5.78;2.00;;;8.80;1.00;;;;;;5018945;28;20041;-80
2022/04/06 02:24:25;;;;;;;3.42;1.52;;;8.80;1.00;;;;;;5018713;28;20029;-80
2022/04/06 02:26:50;;;;;;;5.55;1.65;;;8.80;1.00;;;;;;5019418;28;20033;-80
2022/04/06 02:29:16;;;;;;;7.75;2.70;;;8.80;1.00;;;;;;5019397;28;20053;-80
2022/04/06 02:31:42;;;;;;;11.07;2.22;;;8.80;1.00;;;;;;5017974;28;20566;-80
2022/04/06 02:34:07;;;;;;;7.28;2.35;;;8.80;1.00;;;;;;5010067;28;20030;-81
2022/04/06 02:36:33;;;;;;;8.45;2.22;;;8.70;1.00;;;;;;5018382;28;20121;-79
2022/04/06 02:39:00;;;;;;;10.13;2.53;;;8.80;1.00;;;;;;5017795;28;20520;-81
2022/04/06 02:41:26;;;;;;;8.60;2.53;;;8.70;10.50;;;;;;5018575;28;20026;-80
2022/04/06 02:43:51;;;;;;;9.57;2.78;;;8.70;4.20;;;;;;5018520;28;20053;-81
2022/04/06 02:46:17;;;;;;;9.20;3.08;;;8.70;1.50;;;;;;5013341;28;20022;-80
2022/04/06 02:48:42;;;;;;;9.00;2.92;;;8.70;4.80;;;;;;5018228;28;20033;-81
2022/04/06 02:51:08;;;;;;;9.63;3.15;;;8.70;1.00;;;;;;5013598;28;20030;-82
2022/04/06 02:53:34;;;;;;;9.13;2.85;;;8.80;8.10;;;;;;5003296;28;20022;-80
2022/04/06 02:55:59;;;;;;;13.40;3.30;;;8.80;1.80;;;;;;5016226;28;20397;-81
2022/04/06 02:58:25;;;;;;;7.78;3.10;;;8.80;13.80;;;;;;5019286;28;20030;-80
2022/04/06 03:00:50;;;;;;;12.52;3.20;;;8.80;7.80;;;;;;5016964;28;20040;-81
2022/04/06 03:03:16;;;;;;;6.75;3.22;;;8.80;1.00;;;;;;5016887;28;20497;-81
2022/04/06 03:05:41;;;;;;;11.07;3.35;;;8.90;1.00;;;;;;5016894;28;20382;-81
2022/04/06 03:08:08;;;;;;;9.93;3.53;;;8.90;1.00;;;;;;5016416;28;20057;-80
2022/04/06 03:10:33;;;;;;;7.95;3.25;;;8.90;1.00;;;;;;5016427;28;20101;-80
2022/04/06 03:12:59;;;;;;;14.77;3.10;;;8.90;1.00;;;;;;5016420;28;20080;-81
2022/04/06 03:15:24;;;;;;;9.95;3.20;;;8.90;1.00;;;;;;5017053;28;20366;-80
2022/04/06 03:17:50;;;;;;;12.00;3.20;;;8.90;1.00;;;;;;5017747;28;20108;-80
2022/04/06 03:20:16;;;;;;;8.57;3.00;;;8.90;5.10;;;;;;5016499;28;20028;-81
2022/04/06 03:22:42;;;;;;;10.77;3.13;;;8.80;99.90;;;;;;5016259;28;20080;-80
2022/04/06 03:25:08;;;;;;;9.35;3.00;;;8.80;99.90;;;;;;5016277;28;20033;-79
2022/04/06 03:27:35;;;;;;;8.55;3.10;;;8.80;50.90;;;;;;5016348;28;20057;-80
2022/04/06 03:30:02;;;;;;;8.85;2.85;;;8.80;66.80;;;;;;5015604;28;20101;-81
2022/04/06 03:32:27;;;;;;;11.20;3.33;;;8.80;64.00;;;;;;5015597;28;20117;-81
2022/04/06 03:34:53;;;;;;;25.95;5.22;;;8.80;36.50;;;;;;5015997;28;20049;-81
2022/04/06 03:37:18;;;;;;;12.45;3.03;;;8.70;70.30;;;;;;5015355;28;20390;-81
2022/04/06 03:39:44;;;;;;;10.85;3.30;;;8.70;93.40;;;;;;5016254;28;20026;-80
2022/04/06 03:42:09;;;;;;;8.23;3.80;;;8.70;99.90;;;;;;5016436;28;20027;-80
2022/04/06 03:44:35;;;;;;;9.38;2.72;;;8.70;99.90;;;;;;5016651;28;20134;-80
2022/04/06 03:47:00;;;;;;;12.15;3.75;;;8.60;99.90;;;;;;5016234;28;20030;-81
2022/04/06 03:49:26;;;;;;;9.85;3.47;;;8.60;99.90;;;;;;5016597;28;20045;-81
2022/04/06 03:51:52;;;;;;;11.00;3.42;;;8.60;99.90;;;;;;5016050;28;20033;-80
2022/04/06 03:54:17;;;;;;;11.82;3.15;;;8.60;99.90;;;;;;5016100;28;20033;-81
2022/04/06 03:56:43;;;;;;;8.63;3.03;;;8.60;99.90;;;;;;5016319;28;20026;-81
2022/04/06 03:59:08;;;;;;;9.25;3.08;;;8.60;99.90;;;;;;5016773;28;20025;-80
2022/04/06 04:01:35;;;;;;;12.43;3.15;;;8.50;99.90;;;;;;5016968;28;20033;-80
2022/04/06 04:04:01;;;;;;;15.27;3.35;;;8.50;99.90;;;;;;5016079;28;20022;-80
2022/04/06 04:06:27;;;;;;;12.00;3.08;;;8.50;99.90;;;;;;5015602;28;20054;-80
2022/04/06 04:08:53;;;;;;;10.65;3.22;;;8.50;99.90;;;;;;5015795;28;20057;-80
2022/04/06 04:11:18;;;;;;;12.90;2.78;;;8.50;99.90;;;;;;5015819;28;20062;-80
2022/04/06 04:13:44;;;;;;;10.98;2.80;;;8.50;99.90;;;;;;5014472;28;20111;-80
2022/04/06 04:16:09;;;;;;;12.40;3.47;;;8.50;99.90;;;;;;5016484;28;20100;-80
2022/04/06 04:18:35;;;;;;;11.88;2.92;;;8.50;99.90;;;;;;5016212;28;20018;-81
2022/04/06 04:23:44;;;;;;;17.08;3.72;;;8.40;99.90;;;;;;5009995;28;20084;-80
2022/04/06 04:26:10;;;;;;;11.20;3.05;;;8.40;99.90;;;;;;5016474;28;20030;-81
2022/04/06 04:28:38;;;;;;;15.30;3.17;;;8.40;99.90;;;;;;5017119;28;20026;-80
2022/04/06 04:31:04;;;;;;;11.82;3.15;;;8.40;99.90;;;;;;5017435;28;20170;-80
2022/04/06 04:33:31;;;;;;;11.10;3.75;;;8.40;99.90;;;;;;5017672;28;20117;-80
2022/04/06 04:35:57;;;;;;;9.38;3.10;;;8.50;99.90;;;;;;5006956;28;20374;-80
2022/04/06 04:38:23;;;;;;;11.73;3.40;;;8.40;99.90;;;;;;5007259;28;20096;-80
2022/04/06 04:40:48;;;;;;;10.52;2.95;;;8.40;99.90;;;;;;5003142;28;20097;-80
2022/04/06 04:43:14;;;;;;;11.85;2.70;;;8.40;99.90;;;;;;4999929;28;20057;-81
2022/04/06 04:45:39;;;;;;;12.82;2.85;;;8.40;99.90;;;;;;5011141;28;20038;-82
2022/04/06 04:48:05;;;;;;;13.80;3.40;;;8.30;99.90;;;;;;5005935;28;20026;-81
2022/04/06 04:50:31;;;;;;;12.63;3.67;;;8.30;99.90;;;;;;5006420;28;20453;-81
2022/04/06 04:52:56;;;;;;;14.98;3.42;;;8.30;99.90;;;;;;5018511;28;20029;-81
2022/04/06 04:55:22;;;;;;;11.95;3.60;;;8.30;99.90;;;;;;5009441;28;20033;-81
2022/04/06 04:57:47;;;;;;;16.10;3.85;;;8.30;99.90;;;;;;5022840;28;20028;-83
2022/04/06 05:00:14;;;;;;;12.50;2.95;;;8.30;99.90;;;;;;5024515;28;20090;-80
2022/04/06 05:02:39;;;;;;;11.55;3.55;;;8.30;99.90;;;;;;5022574;28;20044;-80
2022/04/06 05:05:06;;;;;;;12.38;3.22;;;8.30;99.90;;;;;;5021925;28;20389;-80
2022/04/06 05:07:37;;;;;;;8.10;3.00;;;8.30;99.90;;;;;;5020954;28;20398;-80
2022/04/06 05:10:07;;;;;;;11.88;3.17;;;8.30;99.90;;;;;;5021234;28;20052;-80
2022/04/06 05:12:32;;;;;;;11.45;2.90;;;8.30;99.90;;;;;;5020413;28;20053;-81
2022/04/06 05:15:00;;;;;;;15.15;3.10;;;8.30;99.90;;;;;;5020776;28;20049;-80
2022/04/06 05:17:27;;;;;;;21.13;4.43;;;8.30;99.90;;;;;;5020886;28;20030;-81
2022/04/06 05:19:54;;;;;;;17.40;3.63;;;8.30;99.90;;;;;;5019945;28;20483;-80
2022/04/06 05:22:20;;;;;;;13.43;3.70;;;8.40;99.90;;;;;;5019867;28;20512;-80
2022/04/06 05:24:46;;;;;;;14.05;2.97;;;8.30;99.90;;;;;;5019929;28;20026;-80
2022/04/06 05:27:11;;;;;;;15.10;2.90;;;8.40;99.90;;;;;;5018790;28;20028;-81
2022/04/06 05:29:37;;;;;;;12.60;3.10;;;8.40;99.90;;;;;;5020445;28;20026;-81
2022/04/06 05:32:03;;;;;;;15.60;3.00;;;8.40;99.90;;;;;;5013360;28;20026;-80
2022/04/06 05:34:29;;;;;;;12.18;3.15;;;8.40;99.90;;;;;;5017114;28;20064;-81
2022/04/06 05:36:55;;;;;;;15.00;3.15;;;8.40;99.90;;;;;;5019815;28;20030;-81
2022/04/06 05:39:21;;;;;;;15.63;2.88;;;8.40;99.90;;;;;;5019785;28;20026;-81
2022/04/06 05:41:46;;;;;;;10.35;2.65;;;8.40;99.90;;;;;;5019678;28;20128;-81
2022/04/06 05:44:12;;;;;;;11.00;2.60;;;8.50;99.90;;;;;;5004153;28;20072;-82
2022/04/06 05:46:38;;;;;;;16.88;3.58;;;8.40;99.90;;;;;;5012371;28;20086;-81
2022/04/06 05:49:03;;;;;;;14.40;2.58;;;8.40;99.90;;;;;;5008136;28;20425;-80
2022/04/06 05:51:29;;;;;;;12.77;2.78;;;8.40;99.90;;;;;;5002576;28;20090;-81
2022/04/06 05:53:55;;;;;;;10.30;2.30;;;8.50;99.90;;;;;;5003454;28;20026;-81
2022/04/06 05:56:20;;;;;;;10.20;2.20;;;8.40;99.90;;;;;;5005845;28;20034;-80
2022/04/06 05:58:46;;;;;;;12.60;2.75;;;8.40;99.90;;;;;;5004817;28;20023;-81
2022/04/06 06:01:11;;;;;;;19.38;2.83;;;8.40;99.90;;;;;;5005466;28;20030;-80
2022/04/06 06:03:37;;;;;;;13.10;2.35;;;8.40;99.90;;;;;;5011873;28;20029;-81
2022/04/06 06:06:03;;;;;;;15.80;2.20;;;8.50;99.90;;;;;;5017950;28;20034;-80
2022/04/06 06:08:28;;;;;;;12.35;3.08;;;8.60;99.90;;;;;;5017607;28;20087;-81
2022/04/06 06:10:54;;;;;;;14.70;2.63;;;8.50;99.90;;;;;;5008014;28;20033;-80
2022/04/06 06:13:19;;;;;;;14.60;3.13;;;8.50;99.90;;;;;;5016290;28;20021;-80
2022/04/06 06:15:45;;;;;;;13.23;2.25;;;8.50;99.90;;;;;;5017861;28;20104;-80
2022/04/06 06:18:12;;;;;;;12.98;2.65;;;8.50;99.90;;;;;;5018113;28;20052;-80
2022/04/06 06:20:37;;;;;;;15.50;2.85;;;8.50;99.90;;;;;;5018408;28;20081;-81
2022/04/06 06:23:03;;;;;;;7.57;2.60;;;8.50;99.90;;;;;;5018157;28;20053;-81
2022/04/06 06:25:28;;;;;;;10.02;2.38;;;8.50;99.90;;;;;;5016345;28;20618;-81
2022/04/06 06:27:54;;;;;;;8.73;2.53;;;8.50;99.90;;;;;;5014940;28;20057;-80
2022/04/06 06:30:21;;;;;;;8.40;2.28;;;8.60;99.90;;;;;;5016933;28;20520;-80
2022/04/06 06:32:46;;;;;;;17.20;3.03;;;8.60;99.90;;;;;;5015530;28;20118;-80
2022/04/06 06:35:12;;;;;;;11.43;2.55;;;8.60;99.90;;;;;;5016637;28;20092;-81
2022/04/06 06:37:48;;;;;;;17.75;3.45;;;8.70;99.90;;;;;;5016699;28;20454;-81
2022/04/06 06:40:16;;;;;;;12.52;2.65;;;8.80;99.90;;;;;;5016348;28;20393;-80
2022/04/06 06:42:41;;;;;;;8.45;2.30;;;8.80;99.90;;;;;;5016234;28;20034;-81
2022/04/06 06:45:07;;;;;;;11.38;2.55;;;8.80;99.90;;;;;;5016410;28;20160;-80
2022/04/06 06:47:33;;;;;;;11.20;2.30;;;8.80;99.90;;;;;;5017468;28;20140;-80
2022/04/06 06:49:59;;;;;;;11.32;2.47;;;8.80;99.90;;;;;;5017536;28;20065;-80
2022/04/06 06:52:24;;;;;;;9.35;2.00;;;8.80;99.90;;;;;;5017976;28;20029;-81
2022/04/06 06:54:50;;;;;;;11.27;2.78;;;8.80;99.90;;;;;;5019054;28;20022;-80
2022/04/06 06:57:15;;;;;;;10.98;2.13;;;8.90;99.90;;;;;;5020095;28;20026;-80
2022/04/06 06:59:41;;;;;;;11.25;2.53;;;8.90;99.90;;;;;;5021084;28;20057;-81
2022/04/06 07:02:09;;;;;;;8.52;2.03;;;9.00;99.90;;;;;;5009444;28;20025;-80
2022/04/06 07:04:35;;;;;;;10.73;2.38;;;9.00;99.90;;;;;;5005480;28;20069;-80
2022/04/06 07:07:00;;;;;;;14.20;2.53;;;9.00;99.90;;;;;;5011304;28;20022;-81
2022/04/06 07:09:26;;;;;;;15.07;3.90;;;9.00;99.90;;;;;;5017346;28;20056;-80
2022/04/06 07:11:52;;;;;;;9.85;2.25;;;9.00;1.00;;;;;;5017891;28;20394;-80
2022/04/06 07:14:21;;;;;;;13.02;2.58;;;9.00;1.00;;;;;;5018526;28;20042;-80
2022/04/06 07:16:47;;;;;;;9.50;2.42;;;9.00;1.00;;;;;;5018236;28;20037;-81
2022/04/06 07:19:12;;;;;;;7.88;2.50;;;9.00;1.00;;;;;;5018193;28;20029;-80
2022/04/06 07:21:38;;;;;;;15.55;2.47;;;9.00;1.00;;;;;;5018016;28;20028;-81
2022/04/06 07:24:03;;;;;;;14.48;2.38;;;9.00;1.00;;;;;;5007401;28;20072;-80
2022/04/06 07:26:29;;;;;;;8.75;2.38;;;9.00;1.00;;;;;;5011954;28;20062;-80
2022/04/06 07:28:55;;;;;;;7.25;2.15;;;9.10;9.50;;;;;;5013507;28;20101;-80
2022/04/06 07:31:21;;;;;;;13.93;2.58;;;9.00;1.00;;;;;;5017021;28;20026;-80
2022/04/06 07:33:47;;;;;;;16.17;2.42;;;9.10;99.90;;;;;;5015490;28;20026;-80
2022/04/06 07:36:13;;;;;;;14.40;2.15;;;9.10;99.90;;;;;;5016046;28;20036;-80
2022/04/06 07:38:39;;;;;;;10.23;2.10;;;9.10;99.90;;;;;;5016762;28;20110;-81
2022/04/06 07:41:05;;;;;;;16.50;3.00;;;9.20;99.90;;;;;;5016891;28;20457;-80
2022/04/06 07:43:30;;;;;;;8.73;1.92;;;9.20;99.90;;;;;;5015706;28;20089;-80
2022/04/06 07:45:56;;;;;;;8.52;2.00;;;9.30;99.90;;;;;;4999368;28;20049;-80
2022/04/06 07:48:25;;;;;;;13.50;2.63;;;9.50;99.90;;;;;;5006412;28;20078;-81
2022/04/06 07:50:50;;;;;;;8.55;2.47;;;9.70;99.90;;;;;;5001169;28;20026;-80
2022/04/06 07:53:17;;;;;;;12.50;2.75;;;10.00;64.40;;;;;;5006034;28;20018;-81
2022/04/06 07:55:44;;;;;;;14.45;2.00;;;10.00;11.70;;;;;;5005633;28;20030;-80
2022/04/06 07:58:10;;;;;;;8.35;2.03;;;9.80;8.80;;;;;;5003602;28;20059;-80
2022/04/06 08:00:35;;;;;;;9.90;1.85;;;9.90;7.20;;;;;;5001644;28;20023;-80
2022/04/06 08:03:01;;;;;;;8.10;1.85;;;10.20;1.00;;;;;;5003987;28;20022;-80
2022/04/06 08:05:27;;;;;;;8.45;1.77;;;10.40;1.00;;;;;;5008547;28;20026;-81
2022/04/06 08:07:53;;;;;;;7.13;1.90;;;10.40;1.00;;;;;;5009262;28;20022;-80
2022/04/06 08:10:19;;;;;;;12.00;2.28;;;10.40;1.00;;;;;;5004316;28;20484;-80
2022/04/06 08:12:46;;;;;;;8.63;2.58;;;10.40;1.00;;;;;;5005620;28;20490;-80
2022/04/06 08:15:13;;;;;;;13.50;2.35;;;10.40;1.00;;;;;;5010639;28;20046;-80
2022/04/06 08:17:40;;;;;;;11.45;4.10;;;10.50;1.00;;;;;;5001662;28;20027;-81
2022/04/06 08:20:11;;;;;;;12.60;2.97;;;10.70;1.00;;;;;;5010973;28;20026;-81
2022/04/06 08:22:38;;;;;;;9.07;2.72;;;11.20;1.00;;;;;;5013170;28;20030;-81
2022/04/06 08:25:04;;;;;;;11.73;3.50;;;11.40;1.00;;;;;;5014118;28;20501;-81
2022/04/06 08:27:31;;;;;;;12.88;2.72;;;12.00;1.00;;;;;;5014417;28;20102;-81
2022/04/06 08:29:57;;;;;;;13.27;2.20;;;12.80;99.90;;;;;;5002276;28;20018;-81
2022/04/06 08:32:22;;;;;;;10.32;1.88;;;14.90;99.90;;;;;;5009741;28;20424;-81
2022/04/06 08:34:48;;;;;;;7.95;1.98;;;16.20;99.90;;;;;;5014660;28;20022;-82
2022/04/06 08:37:13;;;;;;;8.25;2.20;;;18.70;99.90;;;;;;5015850;28;20125;-81
2022/04/06 08:39:39;;;;;;;7.85;2.42;;;19.60;99.90;;;;;;5016353;28;20041;-81
2022/04/06 08:42:05;;;;;;;9.40;2.35;;;18.60;99.90;;;;;;5015301;28;20545;-81
2022/04/06 08:44:30;;;;;;;6.88;2.42;;;17.60;99.90;;;;;;5015847;28;20053;-81
2022/04/06 08:47:04;;;;;;;9.75;2.25;;;16.50;99.90;;;;;;5014948;28;20030;-81
2022/04/06 08:49:30;;;;;;;5.90;1.92;;;15.50;99.90;;;;;;5015859;28;20041;-81
2022/04/06 08:51:56;;;;;;;7.70;1.77;;;18.00;99.90;;;;;;5015458;28;20034;-81
2022/04/06 08:54:23;;;;;;;13.93;2.17;;;19.30;99.90;;;;;;5015870;28;20018;-81
2022/04/06 08:56:49;;;;;;;7.80;1.98;;;19.40;99.90;;;;;;5014249;28;20030;-81
2022/04/06 08:59:14;;;;;;;9.32;1.75;;;22.90;99.90;;;;;;5014549;28;20026;-81
2022/04/06 09:01:40;;;;;;;11.15;2.20;;;23.20;99.90;;;;;;5015211;28;20049;-81
2022/04/06 09:04:05;;;;;;;8.07;1.80;;;20.70;99.90;;;;;;5014852;28;20087;-81
2022/04/06 09:06:42;;;;;;;5.07;1.50;;;19.10;99.90;;;;;;5014084;28;20029;-81
2022/04/06 09:09:09;;;;;;;10.55;2.22;;;17.60;99.90;;;;;;5014434;28;20045;-80
2022/04/06 09:11:44;;;;;;;7.88;1.70;;;16.50;99.90;;;;;;5016591;28;20500;-81
2022/04/06 09:14:11;;;;;;;8.45;1.60;;;16.00;99.90;;;;;;5020796;28;20050;-80
2022/04/06 09:16:38;;;;;;;6.53;2.03;;;15.80;99.90;;;;;;5015385;28;20041;-81
2022/04/06 09:19:14;;;;;;;8.10;2.03;;;15.80;99.90;;;;;;5015066;28;20030;-81
2022/04/06 09:21:41;;;;;;;8.10;1.85;;;15.80;99.90;;;;;;5007565;28;20026;-81
2022/04/06 09:24:17;;;;;;;10.48;1.98;;;15.60;99.90;;;;;;5013798;28;20049;-81
2022/04/06 09:26:43;;;;;;;11.50;2.55;;;15.50;99.90;;;;;;5002372;28;20048;-81
2022/04/06 09:29:12;;;;;;;12.30;2.50;;;15.10;99.90;;;;;;5006880;28;20090;-81
2022/04/06 09:31:40;;;;;;;13.95;2.60;;;15.30;99.90;;;;;;5015137;28;20018;-81
2022/04/06 09:34:09;;;;;;;13.10;2.65;;;15.00;99.90;;;;;;5014439;28;20548;-81
2022/04/06 09:36:38;;;;;;;11.50;2.83;;;14.80;99.90;;;;;;5014277;28;20034;-81
2022/04/06 09:39:05;;;;;;;9.57;2.78;;;14.80;99.90;;;;;;5015291;28;20049;-81
2022/04/06 09:41:31;;;;;;;9.85;1.95;;;14.80;99.90;;;;;;5014779;28;20102;-81
2022/04/06 09:44:08;;;;;;;12.13;2.33;;;14.80;99.90;;;;;;5014198;28;20021;-81
2022/04/06 09:49:20;;;;;;;11.90;2.28;;;14.20;99.90;;;;;;5018230;28;20049;-81
2022/04/06 09:51:49;;;;;;;10.13;2.33;;;13.70;99.90;;;;;;5018066;28;20030;-81
2022/04/06 09:54:15;;;;;;;10.10;1.90;;;13.50;99.90;;;;;;5018721;28;20105;-81
2022/04/06 09:56:42;;;;;;;9.55;2.35;;;13.70;99.90;;;;;;5018268;28;20302;-81
2022/04/06 09:59:09;;;;;;;7.07;2.20;;;13.60;99.90;;;;;;5018920;28;20048;-80
2022/04/06 10:01:38;;;;;;;10.63;2.30;;;13.40;99.90;;;;;;5018081;28;20103;-81
2022/04/06 10:04:17;;;;;;;12.35;2.92;;;13.50;99.90;;;;;;5016867;28;20397;-81
2022/04/06 10:06:43;;;;;;;14.77;2.63;;;13.40;99.90;;;;;;5013998;28;20036;-80
2022/04/06 10:09:16;;;;;;;11.70;2.22;;;13.00;99.90;;;;;;5015833;28;20037;-80
2022/04/06 10:11:43;;;;;;;11.38;2.22;;;13.10;99.90;;;;;;5019076;28;20048;-81
2022/04/06 10:14:10;;;;;;;10.05;2.17;;;13.60;99.90;;;;;;5019226;28;20056;-80
2022/04/06 10:16:36;;;;;;;10.85;1.80;;;13.60;99.90;;;;;;5021369;28;20032;-82
2022/04/06 10:19:13;;;;;;;10.15;2.15;;;13.70;99.90;;;;;;5016817;28;20101;-81
2022/04/06 10:22:04;;;;;;;8.55;1.40;;;13.90;99.90;;;;;;5012193;28;20034;-81
2022/04/06 10:24:48;;;;;;;10.30;2.00;;;13.50;99.90;;;;;;5019193;28;20030;-81
2022/04/06 10:27:33;;;;;;;9.50;2.40;;;14.30;99.90;;;;;;5012266;28;20057;-81
2022/04/06 10:30:11;;;;;;;11.55;2.35;;;16.10;99.90;;;;;;5004673;28;20462;-79
2022/04/06 10:32:39;;;;;;;10.85;2.30;;;16.70;99.90;;;;;;5003263;28;20026;-81
2022/04/06 10:35:37;;;;;;;6.95;1.70;;;17.80;99.90;;;;;;5020416;28;20026;-82
2022/04/06 10:38:02;;;;;;;7.50;2.35;;;18.30;99.90;;;;;;5031844;28;20037;-83
2022/04/06 10:40:49;;;;;;;8.32;2.10;;;19.90;99.90;;;;;;5027948;28;20030;-82
2022/04/06 10:43:38;;;;;;;12.38;2.60;;;19.60;99.90;;;;;;5029895;28;20034;-82
2022/04/06 10:46:07;;;;;;;8.88;2.45;;;20.30;99.90;;;;;;5026403;28;20022;-81
2022/04/06 10:48:33;;;;;;;9.68;2.20;;;19.90;99.90;;;;;;5024222;28;20049;-81
2022/04/06 10:51:33;;;;;;;12.23;3.03;;;19.80;99.90;;;;;;5019556;28;20426;-81
2022/04/06 10:54:19;;;;;;;13.18;2.60;;;20.00;99.90;;;;;;5023677;28;20018;-79
2022/04/06 10:56:53;;;;;;;8.63;2.25;;;20.00;99.90;;;;;;5027124;28;20037;-83
2022/04/06 10:59:20;;;;;;;14.15;2.70;;;19.50;99.90;;;;;;5006351;28;20027;-79
2022/04/06 11:01:48;;;;;;;10.85;2.42;;;19.20;99.90;;;;;;4997943;28;20023;-79
2022/04/06 11:04:24;;;;;;;7.55;1.75;;;18.80;99.90;;;;;;5000707;28;20569;-79
2022/04/06 11:06:56;;;;;;;14.10;2.50;;;18.70;99.90;;;;;;5016201;28;20505;-80
2022/04/06 11:12:28;;;;;;;7.63;2.00;;;18.20;99.90;;;;;;5016396;28;20029;-80
2022/04/06 11:15:00;;;;;;;8.70;2.03;;;17.70;99.90;;;;;;5014536;28;20050;-79
2022/04/06 11:17:37;;;;;;;11.88;2.38;;;17.60;99.90;;;;;;5015140;28;20029;-80
2022/04/06 11:20:21;;;;;;;13.27;2.50;;;17.70;99.90;;;;;;5015536;28;20073;-79
2022/04/06 11:22:46;;;;;;;14.15;3.15;;;17.40;99.90;;;;;;5014786;28;20022;-79
2022/04/06 11:25:16;;;;;;;14.00;2.60;;;17.60;99.90;;;;;;5014816;28;20024;-79
2022/04/06 11:27:44;;;;;;;13.00;2.65;;;17.80;99.90;;;;;;5014645;28;20048;-79
2022/04/06 11:30:22;;;;;;;13.48;2.78;;;17.80;99.90;;;;;;5008297;28;20058;-79
2022/04/06 11:32:55;;;;;;;14.32;3.03;;;17.60;99.90;;;;;;5011249;28;20034;-79
2022/04/06 11:35:26;;;;;;;14.07;2.50;;;17.40;99.90;;;;;;5014567;28;20018;-79
2022/04/06 11:37:51;;;;;;;12.63;2.55;;;17.60;99.90;;;;;;5013320;28;20022;-81
2022/04/06 11:40:20;;;;;;;13.10;2.95;;;17.40;99.90;;;;;;5011096;28;20033;-81
2022/04/06 11:42:49;;;;;;;12.50;2.92;;;17.80;99.90;;;;;;5003960;28;20029;-80
2022/04/06 11:45:28;;;;;;;11.35;2.45;;;17.40;99.90;;;;;;5014998;28;20523;-79
2022/04/06 11:47:55;;;;;;;10.40;2.38;;;17.30;99.90;;;;;;5014458;28;20081;-79
2022/04/06 11:50:21;;;;;;;12.48;2.85;;;17.20;99.90;;;;;;5015569;28;20110;-79
2022/04/06 11:52:48;;;;;;;17.00;2.83;;;16.60;99.90;;;;;;5014934;28;20026;-79
2022/04/06 11:55:13;;;;;;;11.90;2.72;;;16.70;99.90;;;;;;5013846;28;20033;-79
2022/04/06 11:57:42;;;;;;;15.82;3.00;;;17.10;99.90;;;;;;5012734;28;20033;-80
2022/04/06 12:00:10;;;;;;;10.68;3.35;;;17.30;99.90;;;;;;5013045;28;20076;-80
2022/04/06 12:02:56;;;;;;;10.88;2.97;;;16.80;99.90;;;;;;5012311;28;20022;-79
2022/04/06 12:05:24;;;;;;;10.70;2.25;;;16.80;99.90;;;;;;5012559;28;20018;-80
2022/04/06 12:08:12;;;;;;;12.48;2.67;;;16.30;99.90;;;;;;5010787;28;20504;-79
2022/04/06 12:10:48;;;;;;;13.60;3.13;;;16.30;99.90;;;;;;5012065;28;20021;-78
2022/04/06 12:13:14;;;;;;;11.93;2.95;;;16.30;99.90;;;;;;5011076;28;20471;-79
2022/04/06 12:15:40;;;;;;;16.75;2.75;;;16.10;99.90;;;;;;5010698;28;20552;-79
2022/04/06 12:18:06;;;;;;;12.63;2.58;;;16.50;99.90;;;;;;5012370;28;20481;-80
2022/04/06 12:20:32;;;;;;;11.50;2.50;;;16.50;99.90;;;;;;5009638;28;20076;-81
2022/04/06 12:23:05;;;;;;;12.35;2.65;;;16.60;99.90;;;;;;5010108;28;20057;-79
2022/04/06 12:25:32;;;;;;;11.80;2.05;;;16.10;99.90;;;;;;5010536;28;20025;-80
2022/04/06 12:28:12;;;;;;;13.82;3.05;;;15.90;99.90;;;;;;5011308;28;20033;-80
2022/04/06 12:30:58;;;;;;;12.27;2.65;;;15.70;99.90;;;;;;5013340;28;20030;-78
2022/04/06 12:33:36;;;;;;;8.77;2.42;;;15.70;99.90;;;;;;5014180;28;20550;-76
2022/04/06 12:36:10;;;;;;;9.48;2.88;;;15.30;99.90;;;;;;5018079;28;20034;-76
2022/04/06 12:38:37;;;;;;;9.85;2.63;;;15.20;99.90;;;;;;5016988;28;20018;-78
2022/04/06 12:41:08;;;;;;;8.23;2.70;;;15.50;99.90;;;;;;5012766;28;20022;-77
2022/04/06 12:43:44;;;;;;;16.35;3.78;;;15.20;99.90;;;;;;5010521;28;20061;-77
2022/04/06 12:46:10;;;;;;;11.05;2.78;;;15.10;99.90;;;;;;4993143;28;20030;-77
2022/04/06 12:48:35;;;;;;;13.35;3.17;;;15.10;99.90;;;;;;5006779;28;20113;-77
2022/04/06 12:51:21;;;;;;;12.93;2.40;;;15.30;99.90;;;;;;5006532;28;20110;-77
2022/04/06 12:53:51;;;;;;;9.00;2.60;;;15.30;99.90;;;;;;5013445;28;20726;-77
2022/04/06 12:56:23;;;;;;;16.15;3.30;;;15.20;99.90;;;;;;5011375;28;20397;-76
2022/04/06 12:59:11;;;;;;;11.75;3.17;;;14.90;99.90;;;;;;5013851;28;20450;-76
2022/04/06 13:01:46;;;;;;;11.15;2.75;;;15.30;99.90;;;;;;4998754;28;20026;-77
2022/04/06 13:04:12;;;;;;;8.68;2.15;;;15.60;99.90;;;;;;5002806;28;20026;-79